createdAt,value
2022-09-26T00:01:35.097Z,1.15
2022-09-26T00:04:12.726Z,0.80
2022-09-26T00:06:40.336Z,1.48
2022-09-26T00:09:07.948Z,1.33
2022-09-26T00:11:36.386Z,1.37
2022-09-26T00:14:09.388Z,1.45
2022-09-26T00:16:37.863Z,1.25
2022-09-26T00:19:06.781Z,1.63
2022-09-26T00:24:11.100Z,1.45
2022-09-26T00:26:40.441Z,1.20
2022-09-26T00:29:12.063Z,1.00
2022-09-26T00:31:43.317Z,0.95
2022-09-26T00:34:17.342Z,1.13
2022-09-26T00:36:45.585Z,0.95
2022-09-26T00:39:15.051Z,1.42
2022-09-26T00:41:44.882Z,0.82
2022-09-26T00:44:42.876Z,0.70
2022-09-26T00:47:19.573Z,0.98
2022-09-26T00:49:49.322Z,1.05
2022-09-26T00:52:41.993Z,1.10
2022-09-26T00:55:14.193Z,0.60
2022-09-26T00:57:53.852Z,0.63
2022-09-26T01:00:23.923Z,1.08
2022-09-26T01:02:54.084Z,0.88
2022-09-26T01:05:24.839Z,0.77
2022-09-26T01:12:55.968Z,0.63
2022-09-26T01:15:29.532Z,0.60
2022-09-26T01:17:58.883Z,0.55
2022-09-26T01:20:50.572Z,0.70
2022-09-26T01:23:33.346Z,0.60
2022-09-26T01:26:26.088Z,0.68
2022-09-26T01:29:15.592Z,0.55
2022-09-26T01:32:23.967Z,0.50
2022-09-26T01:35:03.102Z,0.60
2022-09-26T01:38:06.082Z,0.43
2022-09-26T01:40:57.386Z,0.43
2022-09-26T01:43:57.168Z,0.50
2022-09-26T01:46:41.598Z,0.30
2022-09-26T01:49:19.186Z,0.47
2022-09-26T01:52:06.136Z,0.65
2022-09-26T01:55:24.177Z,0.25
2022-09-26T01:58:16.760Z,0.32
2022-09-26T02:00:49.447Z,0.32
2022-09-26T02:03:27.930Z,0.28
2022-09-26T02:06:14.713Z,0.47
2022-09-26T02:08:49.044Z,0.45
2022-09-26T02:11:20.793Z,0.40
2022-09-26T02:14:24.794Z,0.47
2022-09-26T02:16:57.532Z,0.32
2022-09-26T02:19:32.179Z,0.30
2022-09-26T02:22:01.171Z,0.40
2022-09-26T02:24:29.807Z,0.50
2022-09-26T02:26:58.994Z,0.45
2022-09-26T02:29:26.634Z,0.80
2022-09-26T02:31:58.700Z,0.95
2022-09-26T02:34:27.239Z,0.70
2022-09-26T02:36:57.487Z,0.65
2022-09-26T02:39:30.700Z,0.88
2022-09-26T02:42:28.406Z,0.90
2022-09-26T02:45:22.428Z,1.10
2022-09-26T02:48:06.230Z,0.93
2022-09-26T02:51:03.970Z,0.73
2022-09-26T02:53:55.492Z,0.75
2022-09-26T02:56:50.396Z,0.65
2022-09-26T02:59:27.029Z,0.98
2022-09-26T03:02:11.397Z,1.75
2022-09-26T03:04:55.999Z,1.33
2022-09-26T03:07:29.976Z,2.15
2022-09-26T03:10:01.607Z,0.68
2022-09-26T03:12:31.985Z,1.48
2022-09-26T03:15:02.312Z,1.67
2022-09-26T03:17:34.966Z,2.08
2022-09-26T03:20:14.840Z,1.38
2022-09-26T03:22:45.062Z,1.23
2022-09-26T03:25:26.346Z,2.28
2022-09-26T03:28:05.886Z,1.23
2022-09-26T03:30:34.864Z,1.77
2022-09-26T03:33:24.348Z,1.95
2022-09-26T03:35:52.561Z,1.55
2022-09-26T03:38:22.149Z,1.75
2022-09-26T03:40:58.904Z,1.80
2022-09-26T03:43:45.317Z,1.95
2022-09-26T03:46:16.191Z,1.67
2022-09-26T03:48:44.188Z,3.17
2022-09-26T03:51:13.934Z,3.22
2022-09-26T03:53:46.217Z,2.63
2022-09-26T03:56:18.811Z,3.42
2022-09-26T03:58:49.212Z,2.65
2022-09-26T04:01:20.888Z,2.67
2022-09-26T04:03:51.137Z,2.90
2022-09-26T04:06:20.924Z,4.47
2022-09-26T04:08:51.974Z,3.67
2022-09-26T04:11:22.988Z,4.75
2022-09-26T04:13:53.793Z,1.70
2022-09-26T04:16:26.154Z,4.00
2022-09-26T04:19:00.911Z,2.92
2022-09-26T04:21:29.827Z,3.72
2022-09-26T04:23:59.520Z,3.47
2022-09-26T04:26:28.405Z,3.42
2022-09-26T04:28:59.217Z,3.38
2022-09-26T04:31:48.997Z,3.75
2022-09-26T04:34:26.886Z,5.18
2022-09-26T04:36:57.341Z,3.85
2022-09-26T04:39:25.806Z,5.53
2022-09-26T04:41:54.535Z,5.70
2022-09-26T04:44:22.958Z,5.63
2022-09-26T04:46:50.867Z,5.47
2022-09-26T04:49:21.797Z,6.78
2022-09-26T04:51:49.878Z,4.38
2022-09-26T04:54:18.737Z,7.63
2022-09-26T04:56:47.492Z,4.03
2022-09-26T04:59:15.205Z,7.13
2022-09-26T05:01:50.975Z,3.42
2022-09-26T05:04:27.623Z,6.20
2022-09-26T05:06:57.957Z,5.60
2022-09-26T05:09:34.146Z,5.35
2022-09-26T05:12:11.582Z,3.63
2022-09-26T05:14:43.925Z,4.15
2022-09-26T05:17:11.807Z,5.00
2022-09-26T05:19:40.439Z,7.22
2022-09-26T05:22:24.860Z,4.80
2022-09-26T05:25:10.920Z,5.18
2022-09-26T05:27:40.049Z,6.40
2022-09-26T05:30:08.173Z,5.65
2022-09-26T05:32:35.794Z,4.20
2022-09-26T05:35:05.630Z,7.72
2022-09-26T05:37:38.012Z,5.78
2022-09-26T05:40:24.587Z,7.47
2022-09-26T05:43:00.523Z,6.72
2022-09-26T05:45:31.420Z,5.80
2022-09-26T05:48:01.985Z,6.43
2022-09-26T05:50:29.894Z,6.68
2022-09-26T05:53:00.045Z,8.73
2022-09-26T05:55:29.600Z,10.10
2022-09-26T05:58:06.946Z,10.60
2022-09-26T06:01:11.263Z,7.13
2022-09-26T06:03:44.032Z,9.85
2022-09-26T06:06:20.452Z,10.10
2022-09-26T06:11:51.511Z,7.50
2022-09-26T06:14:19.194Z,10.02
2022-09-26T06:16:47.128Z,10.07
2022-09-26T06:19:16.688Z,8.73
2022-09-26T06:21:47.265Z,8.95
2022-09-26T06:24:19.264Z,8.32
2022-09-26T06:26:49.635Z,10.20
2022-09-26T06:29:17.336Z,9.25
2022-09-26T06:48:32.533Z,8.02
2022-09-26T06:53:24.435Z,9.02
2022-09-26T06:56:00.743Z,7.45
2022-09-26T06:58:34.431Z,6.72
2022-09-26T07:04:49.565Z,5.63
2022-09-26T07:07:26.514Z,6.97
2022-09-26T07:09:57.519Z,4.80
2022-09-26T07:12:56.365Z,4.68
2022-09-26T07:15:27.608Z,5.88
2022-09-26T07:18:14.101Z,4.72
2022-09-26T07:21:08.158Z,4.88
2022-09-26T07:30:03.497Z,3.17
2022-09-26T07:36:05.007Z,1.77
2022-09-26T07:39:11.950Z,2.85
2022-09-26T07:41:55.543Z,2.58
2022-09-26T07:48:24.371Z,2.72
2022-09-26T07:51:49.624Z,1.80
2022-09-26T07:54:29.123Z,2.40
2022-09-26T07:57:27.761Z,2.75
2022-09-26T08:00:21.653Z,4.57
2022-09-26T08:03:42.598Z,2.75
2022-09-26T08:06:25.099Z,1.83
2022-09-26T08:09:14.913Z,2.35
2022-09-26T08:12:02.386Z,2.33
2022-09-26T08:15:00.793Z,2.03
2022-09-26T08:17:39.369Z,2.50
2022-09-26T08:20:10.284Z,2.73
2022-09-26T08:22:38.568Z,2.85
2022-09-26T08:25:08.883Z,3.22
2022-09-26T08:28:00.005Z,4.03
2022-09-26T08:30:46.084Z,2.95
2022-09-26T08:33:22.222Z,2.65
2022-09-26T08:39:37.061Z,2.30
2022-09-26T08:42:44.764Z,3.13
2022-09-26T08:46:03.058Z,2.30
2022-09-26T09:05:42.859Z,1.88
2022-09-26T09:20:28.928Z,2.72
2022-09-26T09:30:17.617Z,3.75
2022-09-26T09:33:25.231Z,2.78
2022-09-26T09:36:26.112Z,1.48
2022-09-26T09:39:27.539Z,2.42
2022-09-26T09:42:30.747Z,2.05
2022-09-26T09:45:15.715Z,2.30
2022-09-26T09:47:54.993Z,1.67
2022-09-26T09:50:34.887Z,1.63
2022-09-26T09:53:12.181Z,1.83
2022-09-26T09:55:59.362Z,2.03
2022-09-26T09:58:47.665Z,2.05
2022-09-26T10:01:21.873Z,1.08
2022-09-26T10:03:59.443Z,2.53
2022-09-26T10:06:45.565Z,2.97
2022-09-26T10:09:35.365Z,2.47
2022-09-26T10:12:31.633Z,2.25
2022-09-26T10:15:27.398Z,1.88
2022-09-26T10:18:26.820Z,1.90
2022-09-26T10:21:50.654Z,1.40
2022-09-26T11:32:43.284Z,4.13
2022-09-26T11:36:09.068Z,0.93
2022-09-26T11:38:45.026Z,2.33
2022-09-26T11:41:36.836Z,1.33
2022-09-26T11:44:40.651Z,0.90
2022-09-26T11:48:07.079Z,2.58
2022-09-26T11:51:14.218Z,2.00
2022-09-26T11:54:23.816Z,1.00
2022-09-26T11:57:22.296Z,1.00
2022-09-26T11:59:56.124Z,0.65
2022-09-26T12:02:40.043Z,0.85
2022-09-26T12:05:27.854Z,1.20
2022-09-26T12:08:13.936Z,1.35
2022-09-26T12:11:02.162Z,1.10
2022-09-26T12:13:56.055Z,1.45
2022-09-26T12:16:58.813Z,1.30
2022-09-26T12:19:50.950Z,1.40
2022-09-26T12:22:30.376Z,1.10
2022-09-26T12:25:23.227Z,1.88
2022-09-26T12:28:25.572Z,0.70
2022-09-26T12:31:14.905Z,2.38
2022-09-26T12:34:01.288Z,1.52
2022-09-26T12:36:51.263Z,1.42
2022-09-26T12:39:25.426Z,1.33
2022-09-26T12:42:28.018Z,1.95
2022-09-26T12:45:53.335Z,1.70
2022-09-26T12:48:36.925Z,0.60
2022-09-26T12:51:27.245Z,1.50
2022-09-26T12:54:43.987Z,1.45
2022-09-26T12:57:16.234Z,1.77
2022-09-26T13:00:01.671Z,2.13
2022-09-26T13:02:56.119Z,1.45
2022-09-26T13:05:48.625Z,1.42
2022-09-26T13:08:37.783Z,1.70
2022-09-26T13:11:14.846Z,1.92
2022-09-26T13:14:08.096Z,1.30
2022-09-26T13:17:00.750Z,1.55
2022-09-26T13:19:51.688Z,1.65
2022-09-26T13:22:32.973Z,1.08
2022-09-26T13:25:21.793Z,1.42
2022-09-26T13:30:28.477Z,2.25
2022-09-26T13:33:03.387Z,1.40
2022-09-26T13:35:37.219Z,1.35
2022-09-26T13:38:17.096Z,2.83
2022-09-26T13:40:51.671Z,3.13
2022-09-26T13:43:34.870Z,1.83
2022-09-26T13:46:34.583Z,0.98
2022-09-26T13:49:26.299Z,1.38
2022-09-26T13:52:00.206Z,1.15
2022-09-26T13:55:04.912Z,0.88
2022-09-26T13:57:39.953Z,1.02
2022-09-26T14:00:23.973Z,0.90
2022-09-26T14:03:11.320Z,1.30
2022-09-26T14:05:42.197Z,0.70
2022-09-26T14:08:43.806Z,0.98
2022-09-26T14:11:36.279Z,0.68
2022-09-26T14:14:19.642Z,0.60
2022-09-26T14:16:54.300Z,1.27
2022-09-26T14:19:41.326Z,1.02
2022-09-26T14:22:21.563Z,0.55
2022-09-26T14:24:50.459Z,0.50
2022-09-26T14:27:18.842Z,1.63
2022-09-26T14:30:01.217Z,0.65
2022-09-26T14:32:43.744Z,0.40
2022-09-26T14:35:38.163Z,0.30
2022-09-26T14:38:17.458Z,1.08
2022-09-26T14:40:58.239Z,0.60
2022-09-26T14:43:32.371Z,0.70
2022-09-26T14:46:04.697Z,0.80
2022-09-26T14:48:37.626Z,0.52
2022-09-26T14:51:27.565Z,0.60
2022-09-26T14:54:17.927Z,0.95
2022-09-26T14:57:00.104Z,0.70
2022-09-26T14:59:35.016Z,1.17
2022-09-26T15:02:38.866Z,1.58
2022-09-26T15:05:22.971Z,1.25
2022-09-26T15:07:57.128Z,1.10
2022-09-26T15:10:25.073Z,0.65
2022-09-26T15:13:13.332Z,1.08
2022-09-26T15:15:53.041Z,0.55
2022-09-26T15:18:45.404Z,0.52
2022-09-26T15:21:27.827Z,1.38
2022-09-26T15:23:57.813Z,0.98
2022-09-26T15:26:33.556Z,1.67
2022-09-26T15:29:02.196Z,0.52
2022-09-26T15:31:37.538Z,0.60
2022-09-26T15:34:16.894Z,1.05
2022-09-26T15:36:49.015Z,1.02
2022-09-26T15:39:31.942Z,1.08
2022-09-26T15:42:21.092Z,1.35
2022-09-26T15:44:54.826Z,0.90
2022-09-26T15:47:34.271Z,1.55
2022-09-26T15:50:25.867Z,0.90
2022-09-26T15:53:00.368Z,1.00
2022-09-26T15:55:35.720Z,1.10
2022-09-26T15:58:08.463Z,0.88
2022-09-26T16:00:40.330Z,0.52
2022-09-26T16:03:19.741Z,2.35
2022-09-26T16:05:49.237Z,1.52
2022-09-26T16:08:28.780Z,1.10
2022-09-26T16:12:04.890Z,0.45
2022-09-26T16:18:15.112Z,0.70
2022-09-26T16:21:36.056Z,0.90
2022-09-26T16:24:34.524Z,0.70
2022-09-26T16:27:25.890Z,1.85
2022-09-26T16:30:27.933Z,1.38
2022-09-26T16:33:11.781Z,1.20
2022-09-26T16:35:55.259Z,1.27
2022-09-26T16:38:30.678Z,1.55
2022-09-26T16:42:11.372Z,1.17
2022-09-26T16:44:48.667Z,0.93
2022-09-26T16:59:39.928Z,0.85
2022-09-26T17:03:00.057Z,0.85
2022-09-26T17:05:28.078Z,2.00
2022-09-26T17:07:55.656Z,1.02
2022-09-26T17:10:25.597Z,1.67
2022-09-26T17:12:54.484Z,1.45
2022-09-26T17:15:28.383Z,1.10
2022-09-26T17:17:57.931Z,0.73
2022-09-26T17:20:26.909Z,1.65
2022-09-26T17:22:55.001Z,1.50
2022-09-26T17:25:25.290Z,1.67
2022-09-26T17:27:58.124Z,1.30
2022-09-26T17:30:26.028Z,1.85
2022-09-26T17:32:54.537Z,2.25
2022-09-26T17:35:27.984Z,1.90
2022-09-26T17:37:56.300Z,3.85
2022-09-26T17:40:27.140Z,1.37
2022-09-26T17:42:56.765Z,2.80
2022-09-26T17:45:29.419Z,3.63
2022-09-26T17:48:04.913Z,1.77
2022-09-26T17:50:35.899Z,2.40
2022-09-26T18:21:58.100Z,1.50
2022-09-26T18:24:30.194Z,1.20
2022-09-26T18:27:04.109Z,1.77
2022-09-26T18:29:43.720Z,0.68
2022-09-26T18:32:26.159Z,1.20
2022-09-26T18:34:55.440Z,0.63
2022-09-26T18:49:13.863Z,1.13
2022-09-26T19:06:03.171Z,1.63
2022-09-26T19:09:17.363Z,1.35
2022-09-26T19:12:03.902Z,1.30
2022-09-26T19:14:36.849Z,2.38
2022-09-26T19:45:03.491Z,1.92
2022-09-26T19:48:06.019Z,2.15
2022-09-26T19:55:09.816Z,3.45
2022-09-26T19:58:12.676Z,2.40
2022-09-26T20:24:26.517Z,1.63
2022-09-26T20:27:00.607Z,0.93
2022-09-26T20:29:38.089Z,1.40
2022-09-26T20:32:54.031Z,0.73
2022-09-26T20:43:54.077Z,1.15
2022-09-26T20:50:22.611Z,1.80
2022-09-26T20:53:15.482Z,1.98
2022-09-26T21:20:48.839Z,2.25
2022-09-26T22:04:54.084Z,1.00
2022-09-26T22:07:49.301Z,0.60
2022-09-26T22:21:52.704Z,1.52
2022-09-26T22:32:54.887Z,0.85
2022-09-26T22:41:31.510Z,0.50
2022-09-26T22:49:10.768Z,1.25
2022-09-26T23:16:56.051Z,2.08
2022-09-26T23:44:49.525Z,1.63
2022-09-26T23:48:05.764Z,1.73
2022-09-26T23:50:53.555Z,1.50
